Time;durP1;ratioP1;P1;durP2;ratioP2;P2;SDS_P1;SDS_P2;PMS_P1;PMS_P2;Temp;Humidity;BMP_temperature;BMP_pressure;BME280_temperature;BME280_humidity;BME280_pressure;Samples;Min_cycle;Max_cycle;Signal;HPM_P1;HPM_P2
2023/04/04 00:02:23;;;;;;;;;3.00;3.00;;;;;9.73;45.81;101785.47;5096910;27;45770;-79
2023/04/04 00:04:49;;;;;;;;;5.00;4.50;;;;;9.65;46.09;101770.16;5096948;27;45518;-79
2023/04/04 00:07:14;;;;;;;;;6.25;5.00;;;;;9.61;45.42;101777.28;5096938;27;45508;-76
2023/04/04 00:09:41;;;;;;;;;5.00;3.50;;;;;9.44;45.84;101755.50;5096202;27;45655;-77
2023/04/04 00:15:27;;;;;;;;;5.00;5.00;;;;;9.49;45.60;101777.91;5096577;27;45740;-79
2023/04/04 00:17:53;;;;;;;;;5.25;5.00;;;;;9.48;45.64;101778.81;5096501;27;47370;-77
2023/04/04 00:20:19;;;;;;;;;5.00;5.00;;;;;9.33;46.13;101758.63;5111819;27;46325;-78
2023/04/04 00:22:44;;;;;;;;;5.25;3.00;;;;;9.42;45.61;101781.72;5094806;27;45735;-81
2023/04/04 00:25:09;;;;;;;;;5.00;3.00;;;;;9.37;45.75;101769.78;5096550;27;45765;-78
2023/04/04 00:30:57;;;;;;;;;5.25;5.00;;;;;9.39;45.75;101784.50;5095213;27;45658;-78
2023/04/04 00:33:22;;;;;;;;;3.50;3.50;;;;;9.37;45.90;101772.41;5096734;27;45615;-80
2023/04/04 00:35:48;;;;;;;;;5.00;3.00;;;;;9.39;45.77;101781.88;5095555;27;45892;-79
2023/04/04 00:38:13;;;;;;;;;6.75;4.50;;;;;9.33;45.48;101771.72;5096181;27;45538;-78
2023/04/04 00:40:44;;;;;;;;;5.00;5.00;;;;;9.36;45.46;101789.84;5095996;27;46196;-80
2023/04/04 00:43:10;;;;;;;;;5.50;4.50;;;;;9.35;45.71;101775.09;5094862;27;45682;-79
2023/04/04 00:45:35;;;;;;;;;5.25;4.00;;;;;9.33;45.48;101784.78;5096887;27;45585;-77
2023/04/04 00:48:02;;;;;;;;;6.00;6.00;;;;;9.32;45.56;101775.25;5098239;27;45669;-78
2023/04/04 00:50:27;;;;;;;;;5.75;5.00;;;;;9.30;45.56;101773.59;5096341;27;46344;-80
2023/04/04 00:52:53;;;;;;;;;4.00;4.00;;;;;9.31;45.55;101783.16;5095393;27;45599;-80
2023/04/04 00:55:18;;;;;;;;;5.00;2.00;;;;;9.22;45.43;101780.06;5096379;27;45715;-79
2023/04/04 01:01:05;;;;;;;;;5.00;3.50;;;;;9.22;45.32;101776.59;5095329;27;46225;-77
2023/04/04 01:03:32;;;;;;;;;6.25;4.50;;;;;9.21;45.53;101774.91;5095891;27;46042;-80
2023/04/04 01:05:58;;;;;;;;;2.00;2.00;;;;;9.16;45.56;101769.88;5096122;27;45773;-81
2023/04/04 01:08:26;;;;;;;;;4.00;4.00;;;;;9.19;45.45;101774.09;5095496;27;46351;-80
2023/04/04 01:10:52;;;;;;;;;3.50;3.50;;;;;9.18;45.78;101762.78;5095431;27;47343;-77
2023/04/04 01:16:40;;;;;;;;;3.00;3.00;;;;;9.09;45.45;101749.31;5095274;27;45653;-80
2023/04/04 01:19:10;;;;;;;;;2.00;2.00;;;;;9.13;45.79;101753.47;5095017;27;46865;-78
2023/04/04 01:21:36;;;;;;;;;6.50;5.00;;;;;9.08;45.63;101752.84;5095403;27;46458;-78
2023/04/04 01:24:03;;;;;;;;;3.00;3.00;;;;;9.06;45.56;101750.31;5095215;27;45654;-79
2023/04/04 01:26:29;;;;;;;;;5.75;5.75;;;;;9.09;45.44;101755.41;5095396;27;45723;-81
2023/04/04 01:28:56;;;;;;;;;5.75;5.50;;;;;9.01;45.69;101751.44;5093768;27;46560;-81
2023/04/04 01:31:32;;;;;;;;;3.00;3.00;;;;;8.95;45.28;101741.28;5095121;27;46280;-80
2023/04/04 01:34:28;;;;;;;;;5.00;5.00;;;;;9.03;45.27;101763.50;5095598;27;45556;-80
2023/04/04 01:37:19;;;;;;;;;3.00;3.00;;;;;9.04;45.35;101764.38;5095034;27;45715;-77
2023/04/04 01:39:55;;;;;;;;;5.00;5.00;;;;;8.84;45.58;101744.38;5031872;28;47440;-79
2023/04/04 01:42:21;;;;;;;;;6.75;5.00;;;;;8.96;45.43;101759.47;5031654;28;46361;-78
2023/04/04 01:44:53;;;;;;;;;3.00;3.00;;;;;9.00;45.46;101779.34;5031568;28;45667;-80
2023/04/04 01:47:18;;;;;;;;;3.00;3.00;;;;;8.92;45.32;101771.00;5031957;28;45901;-77
2023/04/04 01:49:43;;;;;;;;;5.00;3.50;;;;;8.98;45.45;101783.78;5031990;28;46384;-77
2023/04/04 01:52:09;;;;;;;;;6.75;5.50;;;;;8.96;45.52;101774.34;5031627;28;46092;-80
2023/04/04 01:54:35;;;;;;;;;7.00;5.00;;;;;8.97;45.73;101781.22;5031962;28;45671;-79
2023/04/04 01:57:01;;;;;;;;;6.50;5.50;;;;;8.98;45.35;101780.31;5015841;28;45673;-80
2023/04/04 01:59:26;;;;;;;;;6.00;5.50;;;;;8.93;45.57;101772.69;5031631;28;46459;-80
2023/04/04 02:01:53;;;;;;;;;6.50;5.00;;;;;8.96;45.82;101787.41;5031954;28;46108;-79
2023/04/04 02:04:18;;;;;;;;;5.50;4.00;;;;;8.94;45.33;101778.78;5032422;28;45912;-81
2023/04/04 02:06:44;;;;;;;;;5.00;5.00;;;;;8.95;45.31;101777.88;5032656;28;45879;-80
2023/04/04 02:09:09;;;;;;;;;6.75;5.25;;;;;8.92;45.25;101781.44;5033400;28;46592;-80
2023/04/04 02:11:36;;;;;;;;;6.00;6.00;;;;;8.90;45.35;101775.47;5033733;28;46166;-80
2023/04/04 02:17:24;;;;;;;;;8.25;5.75;;;;;8.84;45.55;101768.75;5080973;27;45762;-81
2023/04/04 02:19:49;;;;;;;;;7.00;6.25;;;;;8.81;45.28;101762.78;5094452;27;46930;-82
2023/04/04 02:22:15;;;;;;;;;5.00;5.00;;;;;8.76;45.07;101765.63;5094554;27;46010;-80
2023/04/04 02:24:40;;;;;;;;;6.00;5.50;;;;;8.73;45.04;101762.31;5094771;27;45710;-81
2023/04/04 02:27:05;;;;;;;;;3.00;3.00;;;;;8.70;45.29;101759.81;5095166;27;45559;-78
2023/04/04 02:29:31;;;;;;;;;6.00;6.00;;;;;8.68;45.33;101759.91;5094062;27;46549;-81
2023/04/04 02:31:56;;;;;;;;;5.25;5.00;;;;;8.66;45.23;101760.88;5094782;27;46083;-80
2023/04/04 02:34:21;;;;;;;;;4.50;4.50;;;;;8.65;45.04;101764.41;5093545;27;45604;-76
2023/04/04 02:36:47;;;;;;;;;5.00;4.50;;;;;8.50;45.11;101734.59;5094935;27;45564;-78
2023/04/04 02:39:13;;;;;;;;;4.00;3.00;;;;;8.60;45.11;101755.91;5094456;27;45610;-80
2023/04/04 02:41:38;;;;;;;;;7.00;3.00;;;;;8.54;44.96;101749.19;5093959;27;46139;-79
2023/04/04 02:48:06;;;;;;;;;5.00;3.50;;;;;8.53;45.12;101747.50;5093413;27;45612;-78
2023/04/04 02:50:32;;;;;;;;;5.75;5.00;;;;;8.59;45.06;101751.59;5094780;27;46384;-81
2023/04/04 02:53:01;;;;;;;;;3.00;3.00;;;;;8.50;45.03;101731.13;5095382;27;45614;-81
2023/04/04 02:55:26;;;;;;;;;5.25;4.00;;;;;8.52;44.77;101738.00;5098431;27;45451;-79
2023/04/04 02:57:51;;;;;;;;;5.25;5.00;;;;;8.52;45.01;101738.00;5097642;27;45627;-76
2023/04/04 03:00:17;;;;;;;;;6.75;6.00;;;;;8.52;45.01;101747.59;5097458;27;47376;-80
2023/04/04 03:02:43;;;;;;;;;6.00;6.00;;;;;8.51;45.14;101748.50;5098253;27;46197;-81
2023/04/04 03:05:08;;;;;;;;;6.75;6.75;;;;;8.48;45.19;101746.84;5098501;27;45529;-81
2023/04/04 03:07:34;;;;;;;;;5.00;5.00;;;;;8.48;45.09;101746.84;5097578;27;45603;-77
2023/04/04 03:10:00;;;;;;;;;6.50;6.00;;;;;8.46;45.12;101747.84;5097957;27;45733;-82
2023/04/04 03:12:26;;;;;;;;;6.00;5.25;;;;;8.35;45.23;101730.91;5097995;27;45729;-81
2023/04/04 03:18:13;;;;;;;;;5.00;3.00;;;;;8.39;45.21;101739.44;5097855;27;45612;-81
2023/04/04 03:20:38;;;;;;;;;7.50;5.75;;;;;8.35;45.03;101732.66;5097532;27;45594;-82
2023/04/04 03:23:04;;;;;;;;;6.00;5.00;;;;;8.34;45.24;101737.03;5097660;27;45763;-82
2023/04/04 03:25:29;;;;;;;;;6.50;6.50;;;;;8.31;45.35;101733.72;5097709;27;45525;-79
2023/04/04 03:27:55;;;;;;;;;6.50;6.25;;;;;8.25;45.20;101740.03;5098074;27;45686;-81
2023/04/04 03:30:20;;;;;;;;;5.50;5.00;;;;;8.30;45.18;101739.84;5097123;27;47508;-81
2023/04/04 03:32:46;;;;;;;;;5.25;5.25;;;;;8.28;45.20;101745.09;5097970;27;46100;-79
2023/04/04 03:35:12;;;;;;;;;6.00;5.50;;;;;8.19;45.04;101731.59;5098340;27;45771;-80
2023/04/04 03:37:37;;;;;;;;;6.25;3.50;;;;;8.20;45.33;101741.97;5097560;27;45605;-81
2023/04/04 03:40:02;;;;;;;;;5.25;4.00;;;;;8.24;45.15;101756.59;5097932;27;47946;-81
2023/04/04 03:42:32;;;;;;;;;6.75;5.25;;;;;8.18;45.28;101742.94;5096406;27;47037;-78
2023/04/04 03:48:19;;;;;;;;;5.00;5.00;;;;;8.18;45.35;101750.78;5095631;27;45685;-80
2023/04/04 03:50:44;;;;;;;;;5.00;5.00;;;;;8.09;45.25;101733.75;5096618;27;45643;-79
2023/04/04 03:53:11;;;;;;;;;6.75;3.00;;;;;8.10;45.08;101730.22;5097063;27;45548;-79
2023/04/04 03:55:40;;;;;;;;;5.25;5.25;;;;;8.09;45.21;101746.81;5096536;27;45469;-80
2023/04/04 03:58:05;;;;;;;;;6.00;5.00;;;;;8.08;45.42;101746.88;5095357;27;45597;-79
2023/04/04 04:03:53;;;;;;;;;3.25;2.00;;;;;8.00;45.02;101740.19;5095406;27;45574;-80
2023/04/04 04:06:18;;;;;;;;;5.75;3.25;;;;;7.98;45.15;101756.84;5095837;27;45647;-80
2023/04/04 04:08:44;;;;;;;;;6.00;6.00;;;;;7.96;45.05;101754.28;5095077;27;45927;-81
2023/04/04 04:11:09;;;;;;;;;5.00;5.00;;;;;7.94;45.21;101763.09;5095943;27;46246;-81
2023/04/04 04:13:37;;;;;;;;;5.75;5.00;;;;;7.87;45.27;101761.66;5096408;27;46745;-80
2023/04/04 04:16:04;;;;;;;;;5.00;5.00;;;;;7.88;45.38;101773.81;5096114;27;45768;-82
2023/04/04 04:18:29;;;;;;;;;7.00;5.25;;;;;7.88;45.20;101773.81;5096152;27;45983;-78
2023/04/04 04:20:58;;;;;;;;;5.00;5.00;;;;;7.84;45.19;101772.22;5096550;27;46454;-80
2023/04/04 04:23:24;;;;;;;;;5.75;5.00;;;;;7.82;45.57;101782.72;5094990;27;46291;-80
2023/04/04 04:25:50;;;;;;;;;9.00;6.75;;;;;7.81;45.45;101795.81;5096497;27;45644;-80
2023/04/04 04:28:15;;;;;;;;;6.00;6.00;;;;;7.78;46.08;101793.31;5096129;27;45635;-81
2023/04/04 04:34:05;;;;;;;;;6.50;5.00;;;;;7.69;46.36;101799.78;5096513;27;46136;-81
2023/04/04 04:36:31;;;;;;;;;6.25;5.75;;;;;7.65;46.18;101805.19;5096418;27;45945;-81
2023/04/04 04:38:56;;;;;;;;;4.50;4.50;;;;;7.62;46.40;101800.06;5096560;27;45663;-82
2023/04/04 04:41:22;;;;;;;;;4.75;4.00;;;;;7.50;46.47;101783.16;5095770;27;47744;-80
2023/04/04 04:43:47;;;;;;;;;8.00;5.00;;;;;7.54;46.55;101800.38;5096557;27;46179;-81
2023/04/04 04:46:13;;;;;;;;;5.00;5.00;;;;;7.49;46.72;101811.00;5096497;27;45596;-81
2023/04/04 04:48:38;;;;;;;;;5.00;4.75;;;;;7.42;46.81;101801.72;5095966;27;45887;-82
2023/04/04 04:51:04;;;;;;;;;5.75;5.00;;;;;7.38;47.04;101812.31;5096764;27;46351;-80
2023/04/04 04:53:30;;;;;;;;;6.00;6.00;;;;;7.21;47.05;101792.09;5096279;27;46452;-80
2023/04/04 04:55:55;;;;;;;;;5.75;5.75;;;;;7.25;47.00;101804.09;5096407;27;45513;-81
2023/04/04 04:58:22;;;;;;;;;6.00;6.00;;;;;7.06;47.39;101783.13;5096974;27;45565;-81
2023/04/04 05:04:09;;;;;;;;;2.50;0.75;;;;;7.14;47.33;101799.31;5099488;27;46153;-80
2023/04/04 05:06:36;;;;;;;;;8.25;8.25;;;;;7.09;47.37;101798.63;5096040;27;45425;-82
2023/04/04 05:09:02;;;;;;;;;6.00;5.00;;;;;6.96;47.06;101780.91;5096061;27;45731;-81
2023/04/04 05:11:28;;;;;;;;;4.75;4.75;;;;;7.08;47.39;101796.91;5095580;27;46358;-81
2023/04/04 05:13:53;;;;;;;;;4.00;4.00;;;;;6.99;47.37;101789.47;5096140;27;45503;-81
2023/04/04 05:19:40;;;;;;;;;5.25;5.00;;;;;7.03;47.41;101795.41;5095579;27;45567;-81
2023/04/04 05:22:06;;;;;;;;;4.25;4.25;;;;;6.96;47.48;101780.91;5095883;27;46254;-81
2023/04/04 05:24:32;;;;;;;;;2.50;2.50;;;;;7.01;47.27;101792.00;5094967;27;47229;-82
2023/04/04 05:26:57;;;;;;;;;5.50;5.00;;;;;6.94;47.06;101774.91;5096213;27;45447;-82
2023/04/04 05:29:23;;;;;;;;;5.75;5.00;;;;;7.01;47.12;101787.66;5096879;27;45572;-84
2023/04/04 05:31:48;;;;;;;;;5.00;4.00;;;;;6.99;47.27;101780.78;5095796;27;45845;-84
2023/04/04 05:34:13;;;;;;;;;8.25;6.00;;;;;6.96;47.74;101775.72;5094243;27;48499;-82
2023/04/04 05:36:40;;;;;;;;;5.00;4.25;;;;;6.99;47.30;101772.97;5095346;27;45566;-76
2023/04/04 05:39:06;;;;;;;;;8.00;5.00;;;;;6.96;47.39;101776.56;5095039;27;45584;-76
2023/04/04 05:41:32;;;;;;;;;9.00;8.25;;;;;6.98;47.51;101779.94;5094530;27;46317;-73
2023/04/04 05:43:58;;;;;;;;;5.00;5.00;;;;;6.97;47.37;101773.03;5094760;27;46414;-76
2023/04/04 05:49:45;;;;;;;;;5.25;5.00;;;;;7.03;46.90;101785.81;5093032;27;45661;-73
2023/04/04 05:52:11;;;;;;;;;6.75;5.50;;;;;7.02;47.02;101789.34;5094764;27;46546;-74
2023/04/04 05:54:36;;;;;;;;;5.00;5.00;;;;;6.90;47.18;101779.41;5094666;27;46165;-76
2023/04/04 05:57:01;;;;;;;;;4.00;4.00;;;;;7.04;46.95;101803.16;5094026;27;45710;-77
2023/04/04 05:59:27;;;;;;;;;4.75;4.25;;;;;7.05;47.18;101804.00;5095325;27;45754;-79
2023/04/04 06:05:14;;;;;;;;;5.00;4.00;;;;;7.08;47.60;101807.34;5094681;27;45582;-73
2023/04/04 06:07:39;;;;;;;;;6.00;5.25;;;;;7.08;46.97;101815.16;5094604;27;45688;-79
2023/04/04 06:10:06;;;;;;;;;5.00;4.50;;;;;7.04;47.42;101802.31;5094985;27;45517;-75
2023/04/04 06:12:31;;;;;;;;;5.50;5.00;;;;;7.12;47.31;101818.53;5095139;27;45588;-77
2023/04/04 06:21:21;;;;;;;;;8.00;6.00;;;;;7.19;47.42;101840.81;5094544;27;45714;-79
2023/04/04 06:23:46;;;;;;;;;7.25;6.00;;;;;7.20;47.05;101837.31;5094534;27;45643;-79
2023/04/04 06:26:12;;;;;;;;;5.75;4.00;;;;;7.20;46.54;101837.31;5096221;27;46393;-81
2023/04/04 06:28:45;;;;;;;;;5.00;5.00;;;;;7.07;46.55;101820.44;5075842;27;45647;-79
2023/04/04 06:31:11;;;;;;;;;8.00;5.25;;;;;7.18;46.36;101852.16;5094841;27;45880;-76
2023/04/04 06:33:36;;;;;;;;;4.25;3.50;;;;;7.16;46.38;101853.97;5095295;27;45552;-77
2023/04/04 06:36:01;;;;;;;;;2.25;2.00;;;;;7.13;46.29;101849.72;5095098;27;46004;-74
2023/04/04 06:38:28;;;;;;;;;5.00;5.00;;;;;7.11;46.37;101856.75;5094793;27;45717;-75
2023/04/04 06:40:53;;;;;;;;;6.50;5.00;;;;;7.03;46.29;101840.53;5094408;27;45452;-77
2023/04/04 06:43:19;;;;;;;;;6.25;5.50;;;;;7.06;46.24;101853.47;5093672;27;46230;-77
2023/04/04 06:45:44;;;;;;;;;5.00;5.00;;;;;7.01;46.38;101854.53;5094337;27;45944;-78
2023/04/04 06:48:10;;;;;;;;;5.25;5.00;;;;;7.04;46.19;101860.47;5094065;27;45766;-77
2023/04/04 06:50:36;;;;;;;;;6.00;5.25;;;;;6.99;46.41;101853.75;5093373;27;45542;-77
2023/04/04 06:53:02;;;;;;;;;5.75;5.00;;;;;7.00;46.31;101860.66;5093678;27;46389;-73
2023/04/04 06:55:28;;;;;;;;;4.75;4.00;;;;;7.03;46.62;101873.56;5094273;27;45959;-77
2023/04/04 06:57:53;;;;;;;;;6.50;5.75;;;;;7.00;46.34;101864.13;5075436;27;45676;-77
2023/04/04 07:00:20;;;;;;;;;6.00;5.00;;;;;7.02;46.19;101870.09;5094123;27;45878;-76
2023/04/04 07:06:07;;;;;;;;;8.50;8.00;;;;;7.02;46.11;101882.28;5093682;27;45709;-75
2023/04/04 07:08:32;;;;;;;;;5.00;5.00;;;;;7.02;46.29;101879.66;5093708;27;45584;-73
2023/04/04 07:10:58;;;;;;;;;7.50;5.25;;;;;7.02;46.21;101882.28;5093891;27;45783;-73
2023/04/04 07:13:24;;;;;;;;;8.00;4.75;;;;;7.01;45.83;101880.59;5094020;27;46439;-74
2023/04/04 07:15:49;;;;;;;;;5.75;5.00;;;;;6.99;45.73;101882.41;5092517;27;47362;-75
2023/04/04 07:18:16;;;;;;;;;5.25;4.50;;;;;6.90;45.98;101869.72;5093308;27;45531;-76
2023/04/04 07:20:42;;;;;;;;;5.50;4.75;;;;;6.99;45.68;101885.84;5093752;27;45639;-75
2023/04/04 07:23:09;;;;;;;;;7.75;7.50;;;;;6.97;46.31;101881.59;5093464;27;46673;-75
2023/04/04 07:25:35;;;;;;;;;8.25;5.50;;;;;6.97;46.07;101887.66;5092484;27;46707;-77
2023/04/04 07:28:00;;;;;;;;;5.75;5.25;;;;;6.98;45.94;101878.94;5093603;27;45587;-76
2023/04/04 07:30:28;;;;;;;;;9.00;8.00;;;;;7.00;45.96;101886.72;5093517;27;45662;-75
2023/04/04 07:36:15;;;;;;;;;5.50;4.75;;;;;7.05;45.76;101880.44;5093539;27;45721;-76
2023/04/04 07:38:41;;;;;;;;;6.00;6.00;;;;;7.00;45.48;101869.31;5093992;27;45550;-76
2023/04/04 07:41:06;;;;;;;;;6.50;6.00;;;;;7.07;45.50;101881.19;5096796;27;45531;-74
2023/04/04 07:43:32;;;;;;;;;4.75;3.50;;;;;7.06;45.12;101868.25;5096734;27;47433;-77
2023/04/04 07:45:58;;;;;;;;;7.00;6.00;;;;;7.04;45.06;101875.25;5096572;27;46164;-75
2023/04/04 07:48:23;;;;;;;;;5.50;5.50;;;;;7.01;45.41;101872.78;5097010;27;45655;-77
2023/04/04 07:50:48;;;;;;;;;8.25;6.00;;;;;7.06;45.20;101882.13;5096867;27;45623;-76
2023/04/04 07:53:14;;;;;;;;;7.75;6.25;;;;;7.07;44.99;101869.97;5096795;27;45501;-75
2023/04/04 07:55:39;;;;;;;;;7.50;6.00;;;;;7.04;45.18;101875.25;5096778;27;45663;-76
2023/04/04 07:58:04;;;;;;;;;8.75;6.00;;;;;7.07;45.17;101876.00;5095097;27;45589;-75
2023/04/04 08:00:30;;;;;;;;;12.00;9.00;;;;;7.06;45.18;101868.25;5096794;27;45893;-76
2023/04/04 08:06:18;;;;;;;;;5.00;4.75;;;;;7.07;44.78;101854.31;5097059;27;45581;-77
2023/04/04 08:08:45;;;;;;;;;7.00;6.25;;;;;7.12;45.01;101866.28;5098738;27;45618;-75
2023/04/04 08:11:11;;;;;;;;;6.00;6.00;;;;;7.10;44.68;101852.44;5095725;27;45868;-77
2023/04/04 08:13:36;;;;;;;;;6.50;6.00;;;;;7.09;44.87;101845.53;5096341;27;46454;-74
2023/04/04 08:16:02;;;;;;;;;7.50;6.00;;;;;7.23;44.54;101872.84;5095823;27;46806;-74
2023/04/04 08:21:50;;;;;;;;;5.00;5.00;;;;;7.24;44.82;101857.13;5096600;27;45447;-74
2023/04/04 08:24:15;;;;;;;;;6.00;5.00;;;;;7.31;44.85;101858.63;5096158;27;46626;-76
2023/04/04 08:26:41;;;;;;;;;8.75;7.50;;;;;7.33;44.45;101863.78;5096147;27;45879;-77
2023/04/04 08:29:06;;;;;;;;;6.00;6.00;;;;;7.33;44.17;101853.34;5095217;27;45650;-77
2023/04/04 08:31:32;;;;;;;;;5.00;5.00;;;;;7.29;44.30;101843.97;5096313;27;46012;-78
2023/04/04 08:34:00;;;;;;;;;7.00;6.00;;;;;7.42;44.17;101864.28;5095974;27;46461;-77
2023/04/04 08:36:25;;;;;;;;;8.00;5.75;;;;;7.33;44.36;101842.94;5095906;27;46933;-75
2023/04/04 08:38:51;;;;;;;;;5.00;5.00;;;;;7.48;44.00;101865.81;5096326;27;45564;-78
2023/04/04 08:41:16;;;;;;;;;6.00;6.00;;;;;7.42;44.02;101853.00;5096434;27;45790;-77
2023/04/04 08:43:45;;;;;;;;;6.25;6.25;;;;;7.49;44.03;101857.94;5095977;27;46379;-78
2023/04/04 08:46:12;;;;;;;;;10.75;9.25;;;;;7.55;44.10;101867.28;5095805;27;45950;-77
2023/04/04 08:52:27;;;;;;;;;5.00;5.00;;;;;7.62;43.40;101876.53;5094773;27;45630;-77
2023/04/04 08:54:53;;;;;;;;;5.50;5.50;;;;;7.62;43.93;101866.09;5095589;27;45765;-76
2023/04/04 08:57:19;;;;;;;;;9.75;6.50;;;;;7.64;43.18;101876.50;5095034;27;46427;-76
2023/04/04 08:59:46;;;;;;;;;5.00;5.00;;;;;7.67;43.39;101889.41;5095764;27;45741;-77
2023/04/04 09:02:52;;;;;;;;;7.75;6.50;;;;;7.69;43.50;101887.59;5095887;27;45799;-78
2023/04/04 09:05:18;;;;;;;;;9.50;8.25;;;;;7.72;43.28;101890.09;5088056;27;47221;-76
2023/04/04 09:07:45;;;;;;;;;9.00;7.75;;;;;7.73;43.11;101878.75;5095500;27;47349;-76
2023/04/04 09:10:11;;;;;;;;;6.50;6.25;;;;;7.74;42.84;101881.28;5095637;27;45902;-77
2023/04/04 09:12:43;;;;;;;;;8.00;6.00;;;;;7.75;43.11;101871.72;5095391;27;45674;-76
2023/04/04 09:15:09;;;;;;;;;9.00;7.25;;;;;7.71;42.88;101867.53;5094987;27;47273;-76
2023/04/04 09:17:36;;;;;;;;;6.00;5.00;;;;;7.80;42.86;101881.06;5095168;27;47093;-75
2023/04/04 09:20:05;;;;;;;;;8.25;7.00;;;;;7.80;42.61;101870.63;5094899;27;45722;-75
2023/04/04 09:22:31;;;;;;;;;5.25;5.00;;;;;7.85;42.77;101873.06;5095431;27;45482;-76
2023/04/04 09:24:57;;;;;;;;;6.00;5.25;;;;;7.81;42.45;101859.28;5095701;27;46447;-76
2023/04/04 09:27:22;;;;;;;;;4.50;3.25;;;;;7.96;42.06;101882.16;5095110;27;45575;-75
2023/04/04 09:29:48;;;;;;;;;5.25;5.25;;;;;7.92;41.90;101871.91;5095485;27;45533;-75
2023/04/04 09:32:15;;;;;;;;;8.75;5.75;;;;;8.02;42.45;101883.66;5097461;27;45706;-74
2023/04/04 09:34:42;;;;;;;;;6.75;6.00;;;;;8.01;42.26;101872.38;5096727;27;46390;-72
2023/04/04 09:37:08;;;;;;;;;6.00;6.00;;;;;8.06;42.32;101877.41;5095191;27;46373;-75
2023/04/04 09:39:33;;;;;;;;;8.75;6.25;;;;;7.93;42.48;101845.75;5093370;27;45876;-76
2023/04/04 09:42:00;;;;;;;;;7.00;6.25;;;;;8.16;42.22;101870.91;5095192;27;45538;-75
2023/04/04 09:44:28;;;;;;;;;2.00;2.00;;;;;8.21;41.62;101876.78;5094923;27;47370;-76
2023/04/04 09:53:29;;;;;;;;;6.00;6.00;;;;;8.33;41.89;101867.63;5094754;27;46103;-74
2023/04/04 09:55:56;;;;;;;;;6.50;5.50;;;;;8.38;41.83;101873.50;5093330;27;47789;-77
2023/04/04 09:58:26;;;;;;;;;5.00;5.00;;;;;8.46;41.39;101862.75;5094924;27;45632;-74
2023/04/04 10:00:55;;;;;;;;;5.50;5.50;;;;;8.44;41.72;101849.75;5094707;27;45928;-76
2023/04/04 10:06:43;;;;;;;;;7.00;6.00;;;;;8.64;41.33;101864.56;5094485;27;45709;-75
2023/04/04 10:09:10;;;;;;;;;6.50;6.00;;;;;8.68;41.65;101861.78;5093017;27;46242;-76
2023/04/04 10:11:37;;;;;;;;;6.50;6.00;;;;;8.74;40.91;101863.28;5096371;27;45896;-74
2023/04/04 10:14:02;;;;;;;;;7.00;6.25;;;;;8.79;40.95;101864.78;5096322;27;45467;-74
2023/04/04 10:16:33;;;;;;;;;5.25;5.00;;;;;8.82;40.74;101871.63;5095069;27;46455;-75
2023/04/04 10:22:21;;;;;;;;;7.50;6.75;;;;;8.81;41.02;101851.63;5094252;27;45682;-74
2023/04/04 10:24:47;;;;;;;;;7.00;6.00;;;;;8.82;40.93;101848.09;5094289;27;45651;-76
2023/04/04 10:27:13;;;;;;;;;7.50;6.75;;;;;8.87;40.96;101848.75;5094081;27;45618;-74
2023/04/04 10:29:38;;;;;;;;;8.25;8.00;;;;;8.90;41.21;101858.25;5093980;27;45934;-75
2023/04/04 10:32:08;;;;;;;;;10.75;7.75;;;;;8.97;40.48;101865.72;5094157;27;45661;-77
2023/04/04 10:37:57;;;;;;;;;6.00;6.00;;;;;9.01;40.39;101859.47;5093963;27;45621;-71
2023/04/04 10:40:27;;;;;;;;;6.00;6.00;;;;;9.01;40.15;101859.47;5094297;27;46245;-75
2023/04/04 10:42:54;;;;;;;;;6.00;6.00;;;;;9.06;40.11;101857.50;5093914;27;45656;-74
2023/04/04 10:45:20;;;;;;;;;6.25;6.00;;;;;8.97;40.42;101834.34;5094236;27;45517;-74
2023/04/04 10:47:47;;;;;;;;;8.00;6.00;;;;;9.06;40.27;101857.50;5093942;27;45509;-74
2023/04/04 10:50:12;;;;;;;;;8.25;6.00;;;;;9.04;40.04;101854.09;5093855;27;47308;-75
2023/04/04 10:52:42;;;;;;;;;6.75;6.00;;;;;9.11;40.23;101858.13;5094282;27;45530;-75
2023/04/04 10:55:11;;;;;;;;;7.25;6.75;;;;;9.15;39.38;101862.31;5094471;27;45588;-74
2023/04/04 10:57:40;;;;;;;;;7.50;6.00;;;;;9.18;39.44;101856.06;5093940;27;46416;-74
2023/04/04 11:00:09;;;;;;;;;6.00;6.00;;;;;9.19;39.22;101842.94;5093480;27;47087;-73
2023/04/04 11:09:47;;;;;;;;;11.00;7.00;;;;;9.39;39.74;101825.50;5030239;28;45648;-76
2023/04/04 11:12:19;;;;;;;;;6.75;6.00;;;;;9.43;39.79;101821.81;5030644;28;46635;-75
2023/04/04 11:15:07;;;;;;;;;7.00;7.00;;;;;9.40;39.62;101804.47;5032905;28;45935;-75
2023/04/04 11:20:36;;;;;;;;;8.25;7.50;;;;;9.51;39.63;101807.44;5033932;28;46102;-73
2023/04/04 11:23:04;;;;;;;;;9.75;8.25;;;;;9.62;39.82;101822.63;5033813;28;46467;-75
2023/04/04 11:25:32;;;;;;;;;5.50;5.50;;;;;9.58;39.48;101802.78;5034069;28;45886;-76
2023/04/04 11:27:58;;;;;;;;;1.50;1.00;;;;;9.71;39.30;101808.28;5034510;28;45726;-75
2023/04/04 11:30:27;;;;;;;;;4.25;3.00;;;;;9.75;39.00;101812.44;5033760;28;47414;-75
2023/04/04 11:35:47;;;;;;;;;7.00;6.25;;;;;9.85;38.76;101804.06;5033822;28;46035;-75
2023/04/04 11:38:14;;;;;;;;;6.75;6.00;;;;;9.86;39.13;101811.00;5033555;28;45905;-72
2023/04/04 11:40:41;;;;;;;;;7.00;7.00;;;;;9.88;39.20;101806.50;5033312;28;47243;-75
2023/04/04 11:43:11;;;;;;;;;7.50;6.00;;;;;9.92;38.85;101805.47;5083147;27;46937;-74
2023/04/04 11:45:43;;;;;;;;;6.75;6.00;;;;;9.91;38.80;101793.28;5096409;27;46023;-77
2023/04/04 11:51:30;;;;;;;;;6.00;6.00;;;;;9.99;38.54;101791.13;5096145;27;45974;-78
2023/04/04 11:53:56;;;;;;;;;7.00;7.00;;;;;9.98;38.93;101788.59;5096562;27;45695;-77
2023/04/04 11:56:23;;;;;;;;;7.00;7.00;;;;;10.00;38.83;101786.75;5096357;27;45655;-77
2023/04/04 11:58:50;;;;;;;;;10.00;7.50;;;;;10.05;38.74;101796.06;5078112;27;45663;-74
2023/04/04 12:01:17;;;;;;;;;6.25;6.00;;;;;10.08;38.62;101782.84;5096609;27;45595;-78
2023/04/04 12:07:06;;;;;;;;;8.00;7.50;;;;;10.17;38.65;101776.31;5096069;27;45990;-73
2023/04/04 12:09:32;;;;;;;;;9.25;8.00;;;;;10.16;38.99;101773.72;5096264;27;45534;-75
2023/04/04 12:11:58;;;;;;;;;9.00;8.75;;;;;10.22;38.70;101776.06;5096317;27;45531;-77
2023/04/04 12:14:24;;;;;;;;;7.50;7.50;;;;;10.30;39.24;101772.16;5096617;27;46082;-74
2023/04/04 12:16:52;;;;;;;;;8.00;7.00;;;;;10.35;38.89;101769.28;5095962;27;45690;-74
2023/04/04 12:22:39;;;;;;;;;8.50;7.00;;;;;10.41;38.70;101761.97;5096870;27;46156;-75
2023/04/04 12:25:05;;;;;;;;;7.50;7.25;;;;;10.46;38.51;101757.34;5095791;27;46366;-74
2023/04/04 12:27:31;;;;;;;;;9.25;8.00;;;;;10.52;37.98;101756.16;5096063;27;45639;-77
2023/04/04 12:29:59;;;;;;;;;9.25;8.00;;;;;10.52;37.89;101762.25;5095994;27;45810;-74
2023/04/04 12:32:25;;;;;;;;;10.50;7.75;;;;;10.59;37.70;101778.47;5095927;27;47360;-75
2023/04/04 12:38:15;;;;;;;;;9.25;8.25;;;;;10.60;37.34;101763.59;5095841;27;45880;-75
2023/04/04 12:40:41;;;;;;;;;6.75;6.75;;;;;10.67;36.81;101770.22;5096059;27;45505;-76
2023/04/04 12:43:08;;;;;;;;;7.00;6.50;;;;;10.70;36.77;101764.81;5096194;27;46328;-76
2023/04/04 12:45:37;;;;;;;;;8.75;7.75;;;;;10.73;36.79;101765.50;5096198;27;47109;-76
2023/04/04 12:48:09;;;;;;;;;10.25;8.75;;;;;10.71;36.77;101764.75;5094927;27;45678;-76
2023/04/04 12:53:57;;;;;;;;;6.00;6.00;;;;;10.78;36.50;101744.31;5094716;27;46103;-76
2023/04/04 12:56:26;;;;;;;;;7.00;6.00;;;;;10.81;36.47;101754.59;5094256;27;46965;-75
2023/04/04 12:58:52;;;;;;;;;7.00;7.00;;;;;10.84;36.51;101754.47;5095497;27;45774;-73
2023/04/04 13:01:20;;;;;;;;;4.00;4.00;;;;;10.90;36.13;101746.25;5095978;27;45620;-76
2023/04/04 13:03:45;;;;;;;;;7.50;6.25;;;;;10.92;36.64;101740.00;5095619;27;46509;-75
2023/04/04 13:09:33;;;;;;;;;7.25;6.50;;;;;11.05;36.22;101737.56;5095566;27;45659;-75
2023/04/04 13:12:00;;;;;;;;;7.50;7.25;;;;;11.08;35.94;101740.00;5095873;27;45666;-74
2023/04/04 13:14:57;;;;;;;;;8.50;7.75;;;;;11.12;36.05;101732.81;5095691;27;45712;-74
2023/04/04 13:17:22;;;;;;;;;8.00;6.25;;;;;11.13;35.82;101726.63;5095300;27;46128;-75
2023/04/04 13:19:48;;;;;;;;;7.00;7.00;;;;;11.22;35.15;101726.13;5095234;27;45478;-74
2023/04/04 13:22:14;;;;;;;;;8.00;7.00;;;;;11.22;35.30;101716.50;5095830;27;45467;-74
2023/04/04 13:24:39;;;;;;;;;8.50;7.50;;;;;11.26;35.66;101715.38;5095153;27;45550;-76
2023/04/04 13:27:05;;;;;;;;;8.50;7.25;;;;;11.30;35.39;101716.91;5093800;27;45721;-74
2023/04/04 13:29:30;;;;;;;;;8.50;7.25;;;;;11.35;35.73;101703.50;5094963;27;45748;-77
2023/04/04 13:31:56;;;;;;;;;8.50;8.00;;;;;11.40;35.89;101714.59;5094118;27;45796;-76